Time;durP1;ratioP1;P1;durP2;ratioP2;P2;SDS_P1;SDS_P2;PMS_P1;PMS_P2;Temp;Humidity;BMP_temperature;BMP_pressure;BME280_temperature;BME280_humidity;BME280_pressure;Samples;Min_cycle;Max_cycle;Signal;HPM_P1;HPM_P2
2023/09/20 00:01:51;;;;;;;8.30;5.30;;;;;;;-128.00;-1.00;-1.00;105621;1250;1061230;-80
2023/09/20 00:04:21;;;;;;;5.90;5.00;;;;;;;-128.00;-1.00;-1.00;105696;1251;1005458;-80
2023/09/20 00:06:48;;;;;;;9.20;5.30;;;;;;;-128.00;-1.00;-1.00;105615;1251;1058583;-80
2023/09/20 00:09:16;;;;;;;7.20;5.50;;;;;;;-128.00;-1.00;-1.00;105597;1252;1005777;-79
2023/09/20 00:11:44;;;;;;;6.60;5.40;;;;;;;-128.00;-1.00;-1.00;105581;1251;1005278;-80
2023/09/20 00:14:11;;;;;;;10.60;5.70;;;;;;;-128.00;-1.00;-1.00;105591;1251;1004069;-80
2023/09/20 00:16:37;;;;;;;8.20;5.90;;;;;;;-128.00;-1.00;-1.00;105562;1251;1004670;-80
2023/09/20 00:19:03;;;;;;;10.20;6.60;;;;;;;-128.00;-1.00;-1.00;105570;1251;1004976;-80
2023/09/20 00:21:30;;;;;;;7.10;5.80;;;;;;;-128.00;-1.00;-1.00;105559;1251;1004813;-80
2023/09/20 00:23:56;;;;;;;10.70;6.40;;;;;;;-128.00;-1.00;-1.00;105592;1251;1003676;-80
2023/09/20 00:26:23;;;;;;;9.20;6.90;;;;;;;-128.00;-1.00;-1.00;105564;1251;1003795;-80
2023/09/20 00:28:49;;;;;;;11.90;6.40;;;;;;;-128.00;-1.00;-1.00;105606;1251;1003837;-80
2023/09/20 00:31:16;;;;;;;7.80;6.20;;;;;;;-128.00;-1.00;-1.00;105555;1251;1004308;-80
2023/09/20 00:33:45;;;;;;;9.10;7.20;;;;;;;-128.00;-1.00;-1.00;105456;1251;1004768;-80
2023/09/20 00:36:21;;;;;;;10.80;6.60;;;;;;;-128.00;-1.00;-1.00;105575;1251;1048835;-80
2023/09/20 00:38:47;;;;;;;9.70;5.90;;;;;;;-128.00;-1.00;-1.00;105517;1251;1065039;-80
2023/09/20 00:41:15;;;;;;;9.10;6.00;;;;;;;-128.00;-1.00;-1.00;105592;1251;1004677;-80
2023/09/20 00:43:41;;;;;;;10.10;7.10;;;;;;;-128.00;-1.00;-1.00;105604;1251;1003905;-80
2023/09/20 00:46:09;;;;;;;11.50;6.80;;;;;;;-128.00;-1.00;-1.00;105460;1252;1005038;-80
2023/09/20 00:48:38;;;;;;;9.00;5.80;;;;;;;-128.00;-1.00;-1.00;105477;1253;1004550;-80
2023/09/20 00:51:09;;;;;;;;;;;;;;;-128.00;-1.00;-1.00;105734;1250;1063414;-80
2023/09/20 00:53:37;;;;;;;14.40;6.40;;;;;;;-128.00;-1.00;-1.00;105681;1251;1058434;-80
2023/09/20 00:56:05;;;;;;;10.60;6.20;;;;;;;-128.00;-1.00;-1.00;105499;1250;1004090;-80
2023/09/20 00:58:34;;;;;;;9.20;5.50;;;;;;;-128.00;-1.00;-1.00;105702;1251;1046893;-80
2023/09/20 01:01:02;;;;;;;10.20;5.30;;;;;;;-128.00;-1.00;-1.00;105619;1251;1046918;-80
2023/09/20 01:03:28;;;;;;;8.60;5.80;;;;;;;-128.00;-1.00;-1.00;105725;1250;1004338;-80
2023/09/20 01:05:55;;;;;;;7.90;5.10;;;;;;;-128.00;-1.00;-1.00;105522;1251;1004940;-80
2023/09/20 01:08:21;;;;;;;9.00;5.10;;;;;;;-128.00;-1.00;-1.00;105375;1251;1004390;-80
2023/09/20 01:10:48;;;;;;;9.30;5.40;;;;;;;-128.00;-1.00;-1.00;105437;1251;1004808;-81
2023/09/20 01:13:18;;;;;;;12.10;5.20;;;;;;;-128.00;-1.00;-1.00;105516;1252;1004462;-80
2023/09/20 01:15:46;;;;;;;7.60;5.70;;;;;;;-128.00;-1.00;-1.00;105481;1251;1062229;-80
2023/09/20 01:18:12;;;;;;;11.50;5.40;;;;;;;-128.00;-1.00;-1.00;105516;1251;1004202;-80
2023/09/20 01:20:39;;;;;;;7.70;5.20;;;;;;;-128.00;-1.00;-1.00;105605;1251;1003981;-80
2023/09/20 01:23:05;;;;;;;9.10;5.50;;;;;;;-128.00;-1.00;-1.00;105573;1254;1004738;-80
2023/09/20 01:25:35;;;;;;;8.30;5.40;;;;;;;-128.00;-1.00;-1.00;105604;1250;1005368;-80
2023/09/20 01:28:03;;;;;;;6.80;5.30;;;;;;;-128.00;-1.00;-1.00;105598;1253;1061707;-80
2023/09/20 01:30:31;;;;;;;9.10;5.70;;;;;;;-128.00;-1.00;-1.00;105577;1251;1004298;-80
2023/09/20 01:33:00;;;;;;;7.50;4.60;;;;;;;-128.00;-1.00;-1.00;105602;1251;1061038;-80
2023/09/20 01:35:28;;;;;;;6.80;5.40;;;;;;;-128.00;-1.00;-1.00;105610;1251;1046595;-80
2023/09/20 01:37:55;;;;;;;8.60;5.30;;;;;;;-128.00;-1.00;-1.00;105620;1251;1004712;-80
2023/09/20 01:40:33;;;;;;;8.10;5.20;;;;;;;-128.00;-1.00;-1.00;105627;1251;1004024;-80
2023/09/20 01:43:00;;;;;;;8.90;5.20;;;;;;;-128.00;-1.00;-1.00;105603;1251;1057069;-80
2023/09/20 01:45:26;;;;;;;8.30;5.10;;;;;;;-128.00;-1.00;-1.00;105566;1251;1004679;-80
2023/09/20 01:47:54;;;;;;;7.50;5.10;;;;;;;-128.00;-1.00;-1.00;105577;1251;1004157;-80
2023/09/20 01:50:25;;;;;;;8.20;5.70;;;;;;;-128.00;-1.00;-1.00;105578;1251;1004266;-80
2023/09/20 01:52:56;;;;;;;5.80;4.70;;;;;;;-128.00;-1.00;-1.00;105734;1250;1061493;-80
2023/09/20 01:55:23;;;;;;;6.00;5.00;;;;;;;-128.00;-1.00;-1.00;105695;1254;1058002;-80
2023/09/20 01:57:53;;;;;;;7.90;4.90;;;;;;;-128.00;-1.00;-1.00;105596;1251;1003743;-80
2023/09/20 02:00:23;;;;;;;8.10;4.60;;;;;;;-128.00;-1.00;-1.00;105719;1251;1047572;-80
2023/09/20 02:02:51;;;;;;;8.60;5.20;;;;;;;-128.00;-1.00;-1.00;105698;1252;1046359;-80
2023/09/20 02:05:17;;;;;;;9.30;5.60;;;;;;;-128.00;-1.00;-1.00;105667;1253;1003661;-80
2023/09/20 02:07:45;;;;;;;8.20;4.70;;;;;;;-128.00;-1.00;-1.00;105536;1251;1004344;-80
2023/09/20 02:10:13;;;;;;;12.60;4.90;;;;;;;-128.00;-1.00;-1.00;105647;1251;1004010;-80
2023/09/20 02:12:45;;;;;;;6.40;5.40;;;;;;;-128.00;-1.00;-1.00;105625;1251;1046424;-80
2023/09/20 02:15:12;;;;;;;6.60;4.40;;;;;;;-128.00;-1.00;-1.00;105463;1251;1046833;-80
2023/09/20 02:17:40;;;;;;;5.20;4.50;;;;;;;-128.00;-1.00;-1.00;105569;1251;1005464;-80
2023/09/20 02:20:10;;;;;;;9.00;4.60;;;;;;;-128.00;-1.00;-1.00;105598;1251;1003771;-80
2023/09/20 02:22:38;;;;;;;8.40;5.00;;;;;;;-128.00;-1.00;-1.00;105605;1251;1058138;-80
2023/09/20 02:25:09;;;;;;;15.30;7.00;;;;;;;-128.00;-1.00;-1.00;105595;1251;1004103;-80
2023/09/20 02:27:38;;;;;;;17.00;9.00;;;;;;;-128.00;-1.00;-1.00;105595;1251;1047206;-80
2023/09/20 02:30:07;;;;;;;7.50;5.40;;;;;;;-128.00;-1.00;-1.00;105613;1251;1061365;-80
2023/09/20 02:32:33;;;;;;;7.90;5.10;;;;;;;-128.00;-1.00;-1.00;105622;1251;1058000;-80
2023/09/20 02:35:03;;;;;;;6.70;4.60;;;;;;;-128.00;-1.00;-1.00;105614;1251;1004249;-80
2023/09/20 02:37:34;;;;;;;5.30;4.30;;;;;;;-128.00;-1.00;-1.00;105545;1251;1046435;-80
2023/09/20 02:40:07;;;;;;;6.80;4.30;;;;;;;-128.00;-1.00;-1.00;105590;1253;1046941;-80
2023/09/20 02:42:49;;;;;;;10.90;4.50;;;;;;;-128.00;-1.00;-1.00;105595;1251;1062073;-80
2023/09/20 02:45:15;;;;;;;8.50;4.10;;;;;;;-128.00;-1.00;-1.00;105565;1251;1059571;-80
2023/09/20 02:47:43;;;;;;;8.30;4.40;;;;;;;-128.00;-1.00;-1.00;105546;1251;1004305;-80
2023/09/20 02:50:11;;;;;;;7.60;5.50;;;;;;;-128.00;-1.00;-1.00;105496;1251;1004470;-80
2023/09/20 02:52:39;;;;;;;;;;;;;;;-128.00;-1.00;-1.00;105566;1251;1047258;-79
2023/09/20 02:55:11;;;;;;;5.70;3.90;;;;;;;-128.00;-1.00;-1.00;105629;1251;1004058;-80
2023/09/20 02:57:39;;;;;;;10.30;5.00;;;;;;;-128.00;-1.00;-1.00;105582;1253;1057905;-80
2023/09/20 03:00:51;;;;;;;9.70;4.20;;;;;;;-128.00;-1.00;-1.00;105561;1256;1004633;-80
2023/09/20 03:03:02;;;;;;;8.00;4.20;;;;;;;-128.00;-1.00;-1.00;105437;1254;1047437;-80
2023/09/20 03:05:30;;;;;;;11.20;4.70;;;;;;;-128.00;-1.00;-1.00;105517;1254;1046764;-80
2023/09/20 03:07:57;;;;;;;;;;;;;;;-128.00;-1.00;-1.00;105371;1253;1061118;-79
2023/09/20 03:10:24;;;;;;;9.10;4.90;;;;;;;-128.00;-1.00;-1.00;105533;1254;1003314;-80
2023/09/20 03:12:52;;;;;;;6.70;4.00;;;;;;;-128.00;-1.00;-1.00;105354;1253;1003974;-79
2023/09/20 03:15:22;;;;;;;8.90;3.90;;;;;;;-128.00;-1.00;-1.00;105362;1253;1003895;-80
2023/09/20 03:17:52;;;;;;;14.10;4.90;;;;;;;-128.00;-1.00;-1.00;105509;1251;1046215;-80
2023/09/20 03:20:32;;;;;;;6.40;4.90;;;;;;;-128.00;-1.00;-1.00;105565;1254;1063098;-80
2023/09/20 03:22:59;;;;;;;5.50;5.00;;;;;;;-128.00;-1.00;-1.00;105425;1254;1058548;-80
2023/09/20 03:25:28;;;;;;;8.30;4.50;;;;;;;-128.00;-1.00;-1.00;105524;1253;1004302;-80
2023/09/20 03:27:55;;;;;;;6.80;5.00;;;;;;;-128.00;-1.00;-1.00;105565;1254;1046883;-80
2023/09/20 03:30:22;;;;;;;4.70;4.20;;;;;;;-128.00;-1.00;-1.00;105538;1254;1004403;-80
2023/09/20 03:32:49;;;;;;;9.40;4.60;;;;;;;-128.00;-1.00;-1.00;105384;1251;1003799;-80
2023/09/20 03:35:16;;;;;;;6.80;3.80;;;;;;;-128.00;-1.00;-1.00;105598;1253;1005031;-80
2023/09/20 03:37:44;;;;;;;10.40;5.10;;;;;;;-128.00;-1.00;-1.00;105554;1254;1004069;-81
2023/09/20 03:40:16;;;;;;;6.70;4.10;;;;;;;-128.00;-1.00;-1.00;105391;1254;1003986;-80
2023/09/20 03:42:55;;;;;;;8.80;5.20;;;;;;;-128.00;-1.00;-1.00;105544;1254;1048510;-80
2023/09/20 03:45:21;;;;;;;7.30;3.90;;;;;;;-128.00;-1.00;-1.00;105560;1254;1062658;-80
2023/09/20 03:47:53;;;;;;;7.70;4.20;;;;;;;-128.00;-1.00;-1.00;105422;1254;1004458;-79
2023/09/20 03:50:19;;;;;;;6.40;3.90;;;;;;;-128.00;-1.00;-1.00;105540;1254;1059558;-79
2023/09/20 03:52:46;;;;;;;9.10;4.30;;;;;;;-128.00;-1.00;-1.00;105573;1252;1004112;-80
2023/09/20 03:55:13;;;;;;;8.10;3.50;;;;;;;-128.00;-1.00;-1.00;105577;1254;1004745;-80
2023/09/20 03:57:39;;;;;;;6.40;3.80;;;;;;;-128.00;-1.00;-1.00;105509;1255;1004950;-79
2023/09/20 04:00:16;;;;;;;4.80;4.30;;;;;;;-128.00;-1.00;-1.00;105523;1254;1003451;-80
2023/09/20 04:02:48;;;;;;;7.60;3.30;;;;;;;-128.00;-1.00;-1.00;105375;1253;1058664;-79
2023/09/20 04:05:16;;;;;;;5.30;3.60;;;;;;;-128.00;-1.00;-1.00;105477;1252;1048792;-80
2023/09/20 04:07:44;;;;;;;11.20;4.10;;;;;;;-128.00;-1.00;-1.00;105498;1254;1005151;-80
2023/09/20 04:10:11;;;;;;;5.30;4.30;;;;;;;-128.00;-1.00;-1.00;105505;1254;1004336;-79
2023/09/20 04:12:38;;;;;;;4.30;3.90;;;;;;;-128.00;-1.00;-1.00;105532;1254;1004040;-80
2023/09/20 04:15:05;;;;;;;7.00;4.60;;;;;;;-128.00;-1.00;-1.00;105528;1254;1004388;-80
2023/09/20 04:17:32;;;;;;;5.90;4.50;;;;;;;-128.00;-1.00;-1.00;105567;1253;1004778;-80
2023/09/20 04:20:00;;;;;;;4.90;3.90;;;;;;;-128.00;-1.00;-1.00;105472;1255;1004953;-79
2023/09/20 04:22:27;;;;;;;6.70;4.00;;;;;;;-128.00;-1.00;-1.00;105530;1254;1004650;-80
2023/09/20 04:24:54;;;;;;;4.40;3.20;;;;;;;-128.00;-1.00;-1.00;105498;1254;1004572;-79
2023/09/20 04:27:21;;;;;;;5.10;3.80;;;;;;;-128.00;-1.00;-1.00;105511;1252;1004093;-79
2023/09/20 04:29:47;;;;;;;5.70;3.70;;;;;;;-128.00;-1.00;-1.00;105508;1254;1003717;-80
2023/09/20 04:32:14;;;;;;;7.10;3.60;;;;;;;-128.00;-1.00;-1.00;105561;1254;1005266;-79
2023/09/20 04:34:41;;;;;;;6.70;4.00;;;;;;;-128.00;-1.00;-1.00;105526;1253;1004461;-80
2023/09/20 04:37:08;;;;;;;8.30;4.30;;;;;;;-128.00;-1.00;-1.00;105519;1254;1004770;-80
2023/09/20 04:39:34;;;;;;;6.40;4.80;;;;;;;-128.00;-1.00;-1.00;105514;1253;1006098;-80
2023/09/20 04:42:01;;;;;;;7.80;5.50;;;;;;;-128.00;-1.00;-1.00;105527;1253;1003559;-79
2023/09/20 04:44:27;;;;;;;14.60;6.80;;;;;;;-128.00;-1.00;-1.00;105554;1253;1004184;-80
2023/09/20 04:46:57;;;;;;;7.40;5.50;;;;;;;-128.00;-1.00;-1.00;105487;1254;1004045;-80
2023/09/20 04:49:24;;;;;;;6.90;4.80;;;;;;;-128.00;-1.00;-1.00;105525;1253;1057700;-79
2023/09/20 04:51:51;;;;;;;7.10;4.50;;;;;;;-128.00;-1.00;-1.00;105511;1254;1004211;-80
2023/09/20 04:54:20;;;;;;;8.90;6.90;;;;;;;-128.00;-1.00;-1.00;105581;1254;1005244;-80
2023/09/20 04:56:47;;;;;;;8.90;5.80;;;;;;;-128.00;-1.00;-1.00;105537;1255;1004011;-79
2023/09/20 04:59:14;;;;;;;29.00;19.10;;;;;;;-128.00;-1.00;-1.00;105433;1254;1004044;-79
2023/09/20 05:01:44;;;;;;;12.00;7.40;;;;;;;-128.00;-1.00;-1.00;105558;1251;1003549;-80
2023/09/20 05:04:13;;;;;;;13.40;9.20;;;;;;;-128.00;-1.00;-1.00;105532;1254;1059113;-80
2023/09/20 05:06:41;;;;;;;9.90;7.40;;;;;;;-128.00;-1.00;-1.00;105483;1253;1045656;-79
2023/09/20 05:09:09;;;;;;;10.80;6.40;;;;;;;-128.00;-1.00;-1.00;105498;1255;1004684;-79
2023/09/20 05:11:35;;;;;;;7.80;5.60;;;;;;;-128.00;-1.00;-1.00;105525;1251;1003858;-80
2023/09/20 05:14:02;;;;;;;5.30;4.80;;;;;;;-128.00;-1.00;-1.00;105554;1251;1003499;-80
2023/09/20 05:16:29;;;;;;;8.30;5.70;;;;;;;-128.00;-1.00;-1.00;105485;1251;1004528;-80
2023/09/20 05:18:56;;;;;;;6.90;5.20;;;;;;;-128.00;-1.00;-1.00;105515;1251;1004196;-80
2023/09/20 05:21:22;;;;;;;9.40;5.40;;;;;;;-128.00;-1.00;-1.00;105579;1256;1004961;-80
2023/09/20 05:23:49;;;;;;;7.90;5.60;;;;;;;-128.00;-1.00;-1.00;105579;1251;1005148;-80
2023/09/20 05:26:15;;;;;;;9.10;5.20;;;;;;;-128.00;-1.00;-1.00;105582;1251;1004697;-80
2023/09/20 05:28:42;;;;;;;11.30;5.70;;;;;;;-128.00;-1.00;-1.00;105394;1254;1004172;-80
2023/09/20 05:31:09;;;;;;;7.90;5.40;;;;;;;-128.00;-1.00;-1.00;105543;1253;1004391;-79
2023/09/20 05:33:35;;;;;;;11.60;5.50;;;;;;;-128.00;-1.00;-1.00;105569;1251;1003970;-80
2023/09/20 05:36:05;;;;;;;12.00;5.60;;;;;;;-128.00;-1.00;-1.00;105557;1251;1004525;-80
2023/09/20 05:38:32;;;;;;;13.90;6.20;;;;;;;-128.00;-1.00;-1.00;105563;1251;1058870;-80
2023/09/20 05:40:58;;;;;;;7.50;5.20;;;;;;;-128.00;-1.00;-1.00;105540;1251;1003953;-79
2023/09/20 05:43:25;;;;;;;8.90;5.50;;;;;;;-128.00;-1.00;-1.00;105470;1254;1004446;-79
2023/09/20 05:45:51;;;;;;;9.90;6.10;;;;;;;-128.00;-1.00;-1.00;105588;1251;1003928;-80
2023/09/20 05:48:17;;;;;;;11.40;5.00;;;;;;;-128.00;-1.00;-1.00;105565;1251;1004284;-80
2023/09/20 05:50:44;;;;;;;11.60;5.40;;;;;;;-128.00;-1.00;-1.00;105611;1251;1004414;-79
2023/09/20 05:53:11;;;;;;;6.20;4.90;;;;;;;-128.00;-1.00;-1.00;105543;1251;1004501;-80
2023/09/20 05:55:38;;;;;;;6.20;4.30;;;;;;;-128.00;-1.00;-1.00;105519;1251;1003528;-80
2023/09/20 05:58:05;;;;;;;7.80;4.90;;;;;;;-128.00;-1.00;-1.00;105511;1251;1004054;-80
2023/09/20 06:00:33;;;;;;;8.10;4.50;;;;;;;-128.00;-1.00;-1.00;105522;1251;1004420;-80
2023/09/20 06:03:00;;;;;;;10.40;4.20;;;;;;;-128.00;-1.00;-1.00;105607;1251;1004163;-80
2023/09/20 06:05:26;;;;;;;5.70;4.10;;;;;;;-128.00;-1.00;-1.00;105427;1251;1004314;-80
2023/09/20 06:07:53;;;;;;;5.50;4.90;;;;;;;-128.00;-1.00;-1.00;105622;1251;1003753;-81
2023/09/20 06:10:22;;;;;;;5.80;3.70;;;;;;;-128.00;-1.00;-1.00;105632;1250;1003707;-80
2023/09/20 06:12:50;;;;;;;8.40;4.70;;;;;;;-128.00;-1.00;-1.00;105457;1251;1062217;-81
2023/09/20 06:15:17;;;;;;;10.60;4.30;;;;;;;-128.00;-1.00;-1.00;105638;1251;1003615;-80
2023/09/20 06:17:43;;;;;;;6.70;4.70;;;;;;;-128.00;-1.00;-1.00;105481;1251;1004437;-80
2023/09/20 06:20:13;;;;;;;5.10;3.90;;;;;;;-128.00;-1.00;-1.00;105650;1250;1004543;-80
2023/09/20 06:22:39;;;;;;;5.80;4.70;;;;;;;-128.00;-1.00;-1.00;105427;1251;1047571;-80
2023/09/20 06:25:06;;;;;;;7.40;4.70;;;;;;;-128.00;-1.00;-1.00;105577;1251;1004668;-80
2023/09/20 06:27:33;;;;;;;7.70;4.60;;;;;;;-128.00;-1.00;-1.00;105530;1251;1004979;-80
2023/09/20 06:30:02;;;;;;;8.50;4.60;;;;;;;-128.00;-1.00;-1.00;105631;1251;1004343;-80
2023/09/20 06:32:30;;;;;;;9.50;4.90;;;;;;;-128.00;-1.00;-1.00;105603;1251;1045707;-80
2023/09/20 06:34:56;;;;;;;5.20;4.30;;;;;;;-128.00;-1.00;-1.00;105552;1253;1004076;-80
2023/09/20 06:37:22;;;;;;;6.70;4.60;;;;;;;-128.00;-1.00;-1.00;105555;1251;1004825;-80
2023/09/20 06:39:49;;;;;;;7.10;4.80;;;;;;;-128.00;-1.00;-1.00;105561;1251;1004237;-80
2023/09/20 06:42:15;;;;;;;8.50;5.00;;;;;;;-128.00;-1.00;-1.00;105551;1251;1004347;-80
2023/09/20 06:44:44;;;;;;;11.30;4.10;;;;;;;-128.00;-1.00;-1.00;105546;1251;1004398;-80
2023/09/20 06:47:11;;;;;;;4.60;3.80;;;;;;;-128.00;-1.00;-1.00;105596;1251;1047632;-80
2023/09/20 06:49:38;;;;;;;7.20;4.40;;;;;;;-128.00;-1.00;-1.00;105493;1252;1003629;-80
2023/09/20 06:52:05;;;;;;;6.40;4.30;;;;;;;-128.00;-1.00;-1.00;105573;1251;1004299;-80
2023/09/20 06:54:37;;;;;;;8.10;4.50;;;;;;;-128.00;-1.00;-1.00;105607;1250;1004883;-81
2023/09/20 06:57:04;;;;;;;7.60;4.00;;;;;;;-128.00;-1.00;-1.00;105639;1249;1046082;-80
2023/09/20 06:59:33;;;;;;;9.50;3.70;;;;;;;-128.00;-1.00;-1.00;105573;1250;1003785;-80
2023/09/20 07:02:00;;;;;;;7.20;3.30;;;;;;;-128.00;-1.00;-1.00;105510;1251;1062731;-81
2023/09/20 07:04:27;;;;;;;8.70;4.10;;;;;;;-128.00;-1.00;-1.00;105598;1251;1003762;-80
2023/09/20 07:07:00;;;;;;;8.80;3.60;;;;;;;-128.00;-1.00;-1.00;105556;1251;1004478;-81
2023/09/20 07:09:26;;;;;;;5.50;3.80;;;;;;;-128.00;-1.00;-1.00;105442;1251;1046432;-81
2023/09/20 07:11:53;;;;;;;4.50;2.70;;;;;;;-128.00;-1.00;-1.00;105617;1251;1004244;-81
2023/09/20 07:14:20;;;;;;;6.10;2.50;;;;;;;-128.00;-1.00;-1.00;105548;1251;1004230;-81
2023/09/20 07:16:50;;;;;;;4.20;3.00;;;;;;;-128.00;-1.00;-1.00;105581;1251;1003856;-81
2023/09/20 07:19:20;;;;;;;8.30;2.50;;;;;;;-128.00;-1.00;-1.00;105589;1251;1058973;-81
2023/09/20 07:21:46;;;;;;;8.80;2.60;;;;;;;-128.00;-1.00;-1.00;105579;1250;1046847;-82
2023/09/20 07:24:13;;;;;;;4.00;2.80;;;;;;;-128.00;-1.00;-1.00;105584;1250;1004253;-82
2023/09/20 07:26:43;;;;;;;10.10;2.60;;;;;;;-128.00;-1.00;-1.00;105566;1251;1003728;-81
2023/09/20 07:29:14;;;;;;;9.40;2.10;;;;;;;-128.00;-1.00;-1.00;105570;1250;1058246;-81
2023/09/20 07:31:40;;;;;;;3.00;1.90;;;;;;;-128.00;-1.00;-1.00;105478;1251;1058925;-82
2023/09/20 07:34:07;;;;;;;6.10;2.10;;;;;;;-128.00;-1.00;-1.00;105569;1251;1004151;-81
2023/09/20 07:36:37;;;;;;;4.30;2.00;;;;;;;-128.00;-1.00;-1.00;105632;1251;1004721;-82
2023/09/20 07:39:05;;;;;;;7.20;2.80;;;;;;;-128.00;-1.00;-1.00;105587;1251;1062856;-82
2023/09/20 07:41:32;;;;;;;;;;;;;;;-128.00;-1.00;-1.00;105601;1251;1004440;-82
2023/09/20 07:43:59;;;;;;;3.20;2.50;;;;;;;-128.00;-1.00;-1.00;105573;1251;1004083;-82
2023/09/20 07:46:25;;;;;;;8.50;3.40;;;;;;;-128.00;-1.00;-1.00;105555;1251;1004665;-81
2023/09/20 07:48:52;;;;;;;8.60;5.60;;;;;;;-128.00;-1.00;-1.00;105561;1250;1004087;-81
2023/09/20 07:51:28;;;;;;;4.00;2.90;;;;;;;-128.00;-1.00;-1.00;105563;1251;1004061;-82
2023/09/20 07:53:55;;;;;;;3.90;1.90;;;;;;;-128.00;-1.00;-1.00;105598;1251;1057693;-81
2023/09/20 07:56:22;;;;;;;2.90;2.00;;;;;;;-128.00;-1.00;-1.00;105609;1251;1004251;-82
2023/09/20 07:58:49;;;;;;;4.00;1.80;;;;;;;-128.00;-1.00;-1.00;105584;1250;1004627;-82
2023/09/20 08:01:18;;;;;;;4.70;1.60;;;;;;;-128.00;-1.00;-1.00;105564;1251;1003780;-82
2023/09/20 08:03:52;;;;;;;3.60;1.90;;;;;;;-128.00;-1.00;-1.00;105395;1251;1062094;-82
2023/09/20 08:06:29;;;;;;;3.20;2.00;;;;;;;-128.00;-1.00;-1.00;105550;1251;1058255;-82
2023/09/20 08:08:56;;;;;;;6.90;2.20;;;;;;;-128.00;-1.00;-1.00;105599;1251;1059100;-82
2023/09/20 08:11:22;;;;;;;3.80;1.70;;;;;;;-128.00;-1.00;-1.00;105501;1252;1004143;-83
2023/09/20 08:13:50;;;;;;;3.00;2.00;;;;;;;-128.00;-1.00;-1.00;105579;1251;1003863;-82
2023/09/20 08:16:17;;;;;;;4.40;1.90;;;;;;;-128.00;-1.00;-1.00;105556;1251;1003896;-82
2023/09/20 08:21:29;;;;;;;4.00;1.70;;;;;;;-128.00;-1.00;-1.00;105531;1251;1059184;-83
2023/09/20 08:59:56;;;;;;;4.10;2.40;;;;;;;-128.00;-1.00;-1.00;105639;1250;1058419;-82
2023/09/20 09:02:23;;;;;;;3.50;1.80;;;;;;;-128.00;-1.00;-1.00;105307;1251;1059237;-81
2023/09/20 09:04:53;;;;;;;7.70;4.90;;;;;;;-128.00;-1.00;-1.00;105523;1250;1004524;-81
2023/09/20 09:07:22;;;;;;;14.00;9.50;;;;;;;-128.00;-1.00;-1.00;105530;1251;1046106;-81
2023/09/20 09:09:50;;;;;;;3.60;2.80;;;;;;;-128.00;-1.00;-1.00;105531;1251;1061485;-81
2023/09/20 09:12:17;;;;;;;5.80;2.10;;;;;;;-128.00;-1.00;-1.00;105445;1251;1005167;-81
2023/09/20 09:14:43;;;;;;;3.30;1.90;;;;;;;-128.00;-1.00;-1.00;105496;1250;1003863;-81
2023/09/20 09:17:10;;;;;;;4.70;1.70;;;;;;;-128.00;-1.00;-1.00;105560;1251;1004418;-81
2023/09/20 09:19:39;;;;;;;3.30;2.00;;;;;;;-128.00;-1.00;-1.00;105492;1255;1004910;-81
2023/09/20 09:22:06;;;;;;;5.20;1.20;;;;;;;-128.00;-1.00;-1.00;105407;1251;1062772;-81
2023/09/20 09:24:45;;;;;;;3.20;1.60;;;;;;;-128.00;-1.00;-1.00;105580;1250;1004611;-82
2023/09/20 09:27:12;;;;;;;3.20;1.10;;;;;;;-128.00;-1.00;-1.00;105515;1250;1058835;-81
2023/09/20 09:29:40;;;;;;;2.30;1.40;;;;;;;-128.00;-1.00;-1.00;105467;1251;1003813;-82
2023/09/20 09:32:07;;;;;;;3.90;1.50;;;;;;;-128.00;-1.00;-1.00;105339;1253;1004713;-82
2023/09/20 09:34:34;;;;;;;1.60;1.10;;;;;;;-128.00;-1.00;-1.00;105561;1251;1005055;-81
2023/09/20 09:37:01;;;;;;;5.20;1.90;;;;;;;-128.00;-1.00;-1.00;105358;1251;1004808;-81
2023/09/20 09:39:29;;;;;;;2.60;1.10;;;;;;;-128.00;-1.00;-1.00;105573;1251;1004212;-81
2023/09/20 09:41:57;;;;;;;4.50;1.60;;;;;;;-128.00;-1.00;-1.00;105595;1250;1003880;-81
2023/09/20 09:44:25;;;;;;;3.70;1.40;;;;;;;-128.00;-1.00;-1.00;105586;1250;1004198;-81
2023/09/20 09:46:52;;;;;;;3.50;1.30;;;;;;;-128.00;-1.00;-1.00;105617;1250;1004642;-81
2023/09/20 09:49:19;;;;;;;2.80;1.50;;;;;;;-128.00;-1.00;-1.00;105598;1251;1003817;-81
2023/09/20 09:51:50;;;;;;;4.00;1.50;;;;;;;-128.00;-1.00;-1.00;105551;1250;1003539;-81
2023/09/20 09:54:18;;;;;;;4.00;1.40;;;;;;;-128.00;-1.00;-1.00;105365;1253;1044471;-81
2023/09/20 09:56:44;;;;;;;4.30;2.60;;;;;;;-128.00;-1.00;-1.00;105680;1253;1003834;-81
2023/09/20 09:59:11;;;;;;;3.00;1.70;;;;;;;-128.00;-1.00;-1.00;105712;1250;1003927;-81
2023/09/20 10:01:38;;;;;;;2.50;1.70;;;;;;;-128.00;-1.00;-1.00;105540;1250;1004648;-81
2023/09/20 10:04:10;;;;;;;2.20;1.60;;;;;;;-128.00;-1.00;-1.00;105383;1252;1005125;-81
2023/09/20 10:06:50;;;;;;;6.90;2.20;;;;;;;-128.00;-1.00;-1.00;105429;1252;1043797;-82
2023/09/20 10:09:17;;;;;;;2.90;1.50;;;;;;;-128.00;-1.00;-1.00;105430;1256;1047827;-82
2023/09/20 10:11:44;;;;;;;2.50;1.40;;;;;;;-128.00;-1.00;-1.00;105428;1252;1004662;-81
2023/09/20 10:14:10;;;;;;;6.00;2.00;;;;;;;-128.00;-1.00;-1.00;105315;1252;1004760;-82
2023/09/20 10:16:42;;;;;;;4.00;2.00;;;;;;;-128.00;-1.00;-1.00;105413;1251;1004770;-81
2023/09/20 10:19:12;;;;;;;2.00;1.50;;;;;;;-128.00;-1.00;-1.00;105378;1253;1045645;-81
2023/09/20 10:21:40;;;;;;;2.40;1.30;;;;;;;-128.00;-1.00;-1.00;105464;1252;1046871;-81
2023/09/20 10:24:14;;;;;;;2.70;1.40;;;;;;;-128.00;-1.00;-1.00;105327;1253;1004062;-81
2023/09/20 10:26:40;;;;;;;3.00;1.70;;;;;;;-128.00;-1.00;-1.00;105384;1252;1057395;-81
2023/09/20 10:29:39;;;;;;;5.20;1.90;;;;;;;-128.00;-1.00;-1.00;105465;1252;1004473;-80
2023/09/20 10:32:17;;;;;;;2.40;1.70;;;;;;;-128.00;-1.00;-1.00;105154;1253;1044213;-81
2023/09/20 10:35:36;;;;;;;3.30;2.50;;;;;;;-128.00;-1.00;-1.00;105445;1252;1047173;-81
2023/09/20 10:38:10;;;;;;;5.40;2.20;;;;;;;-128.00;-1.00;-1.00;105489;1250;1062534;-81
2023/09/20 10:40:55;;;;;;;3.30;1.60;;;;;;;-128.00;-1.00;-1.00;105550;1251;1058164;-81
2023/09/20 10:43:43;;;;;;;2.30;1.60;;;;;;;-128.00;-1.00;-1.00;105436;1252;1061063;-81
2023/09/20 10:46:17;;;;;;;4.10;2.10;;;;;;;-128.00;-1.00;-1.00;105435;1253;1044481;-81
2023/09/20 10:48:49;;;;;;;6.00;1.60;;;;;;;-128.00;-1.00;-1.00;105368;1253;1047185;-82
2023/09/20 10:51:38;;;;;;;2.60;1.80;;;;;;;-128.00;-1.00;-1.00;105466;1252;1063729;-81
2023/09/20 10:54:25;;;;;;;3.50;1.70;;;;;;;-128.00;-1.00;-1.00;105400;1253;1058143;-81
2023/09/20 10:56:52;;;;;;;3.70;2.10;;;;;;;-128.00;-1.00;-1.00;105485;1252;1058200;-81
2023/09/20 10:59:22;;;;;;;2.90;1.80;;;;;;;-128.00;-1.00;-1.00;105513;1252;1004626;-81
2023/09/20 11:01:52;;;;;;;4.50;1.70;;;;;;;-128.00;-1.00;-1.00;105431;1253;1046335;-81
2023/09/20 11:04:19;;;;;;;5.20;1.70;;;;;;;-128.00;-1.00;-1.00;105542;1250;1064036;-81
2023/09/20 11:06:47;;;;;;;2.40;1.50;;;;;;;-128.00;-1.00;-1.00;105612;1250;1003826;-81
2023/09/20 11:09:14;;;;;;;5.80;3.30;;;;;;;-128.00;-1.00;-1.00;105387;1253;1058756;-82
2023/09/20 11:11:41;;;;;;;3.30;1.70;;;;;;;-128.00;-1.00;-1.00;105442;1251;1003454;-81
2023/09/20 11:14:12;;;;;;;2.80;1.80;;;;;;;-128.00;-1.00;-1.00;105473;1251;1004364;-81
2023/09/20 11:16:42;;;;;;;3.70;1.80;;;;;;;-128.00;-1.00;-1.00;105361;1251;1062017;-81
2023/09/20 11:19:12;;;;;;;2.70;1.40;;;;;;;-128.00;-1.00;-1.00;105419;1251;1057864;-82
2023/09/20 11:21:42;;;;;;;2.90;1.70;;;;;;;-128.00;-1.00;-1.00;105534;1251;1060462;-81
2023/09/20 11:24:10;;;;;;;2.50;1.40;;;;;;;-128.00;-1.00;-1.00;105387;1254;1044066;-81
2023/09/20 11:26:39;;;;;;;3.90;1.40;;;;;;;-128.00;-1.00;-1.00;105731;1250;1004879;-81
2023/09/20 11:29:10;;;;;;;4.10;1.40;;;;;;;-128.00;-1.00;-1.00;105430;1253;1061268;-81
2023/09/20 11:31:36;;;;;;;1.80;1.40;;;;;;;-128.00;-1.00;-1.00;105534;1251;1058825;-81
2023/09/20 11:34:04;;;;;;;2.90;1.50;;;;;;;-128.00;-1.00;-1.00;105568;1251;1005266;-82
2023/09/20 11:36:37;;;;;;;3.40;1.40;;;;;;;-128.00;-1.00;-1.00;105568;1251;1004790;-81
2023/09/20 11:39:05;;;;;;;4.20;1.20;;;;;;;-128.00;-1.00;-1.00;105559;1251;1046999;-81
2023/09/20 11:41:38;;;;;;;3.80;1.80;;;;;;;-128.00;-1.00;-1.00;105574;1251;1003874;-81
2023/09/20 11:44:08;;;;;;;3.20;1.40;;;;;;;-128.00;-1.00;-1.00;105546;1251;1058565;-81
2023/09/20 11:46:34;;;;;;;2.90;1.60;;;;;;;-128.00;-1.00;-1.00;105574;1251;1058897;-81
2023/09/20 11:49:02;;;;;;;2.50;1.50;;;;;;;-128.00;-1.00;-1.00;105481;1250;1003878;-81
2023/09/20 11:51:30;;;;;;;2.40;1.40;;;;;;;-128.00;-1.00;-1.00;105566;1251;1005229;-81
2023/09/20 11:53:57;;;;;;;2.60;1.70;;;;;;;-128.00;-1.00;-1.00;105449;1251;1003809;-81
2023/09/20 11:56:29;;;;;;;3.30;2.00;;;;;;;-128.00;-1.00;-1.00;105593;1250;1004043;-81
2023/09/20 11:58:59;;;;;;;3.60;1.40;;;;;;;-128.00;-1.00;-1.00;105531;1254;1060436;-81
2023/09/20 12:01:30;;;;;;;2.10;1.50;;;;;;;-128.00;-1.00;-1.00;105528;1253;1045305;-81
2023/09/20 12:03:56;;;;;;;1.90;1.10;;;;;;;-128.00;-1.00;-1.00;105599;1250;1046085;-81